createdAt,value
2023-06-29T00:01:10.242Z,6.13
2023-06-29T00:02:23.495Z,7.57
2023-06-29T00:03:29.706Z,7.45
2023-06-29T00:04:39.929Z,6.00
2023-06-29T00:05:51.770Z,6.70
2023-06-29T00:06:56.213Z,6.57
2023-06-29T00:08:04.985Z,6.60
2023-06-29T00:09:11.399Z,6.38
2023-06-29T00:10:28.723Z,6.32
2023-06-29T00:11:39.663Z,6.07
2023-06-29T00:12:52.566Z,6.28
2023-06-29T00:13:57.568Z,6.25
2023-06-29T00:15:21.033Z,6.10
2023-06-29T00:16:24.471Z,5.72
2023-06-29T00:17:32.803Z,5.45
2023-06-29T00:18:45.341Z,6.70
2023-06-29T00:19:53.780Z,5.80
2023-06-29T00:21:07.560Z,6.13
2023-06-29T00:22:26.540Z,6.20
2023-06-29T00:23:42.853Z,5.45
2023-06-29T00:25:07.355Z,6.13
2023-06-29T00:26:22.632Z,5.95
2023-06-29T00:27:31.687Z,6.18
2023-06-29T00:28:40.962Z,5.63
2023-06-29T00:29:46.807Z,6.18
2023-06-29T00:31:04.228Z,5.68
2023-06-29T00:32:24.884Z,5.63
2023-06-29T00:35:57.730Z,5.70
2023-06-29T00:37:04.885Z,6.22
2023-06-29T00:38:07.524Z,5.93
2023-06-29T00:39:10.679Z,5.80
2023-06-29T00:40:19.976Z,5.55
2023-06-29T00:41:42.799Z,5.45
2023-06-29T00:42:51.183Z,5.68
2023-06-29T00:44:13.939Z,5.70
2023-06-29T00:46:24.151Z,5.43
2023-06-29T00:47:47.622Z,5.07
2023-06-29T00:48:58.700Z,5.75
2023-06-29T00:56:12.329Z,5.10
2023-06-29T00:58:10.843Z,5.78
2023-06-29T00:59:22.587Z,5.60
2023-06-29T01:00:32.666Z,6.07
2023-06-29T01:01:41.619Z,5.07
2023-06-29T01:02:54.175Z,5.25
2023-06-29T01:05:07.201Z,6.20
2023-06-29T01:06:23.819Z,5.68
2023-06-29T01:07:33.783Z,5.80
2023-06-29T01:08:49.482Z,5.65
2023-06-29T01:09:55.657Z,5.43
2023-06-29T01:11:16.690Z,5.38
2023-06-29T01:12:25.412Z,4.90
2023-06-29T01:16:06.790Z,4.88
2023-06-29T01:17:20.593Z,5.15
2023-06-29T01:18:27.549Z,5.18
2023-06-29T01:19:40.034Z,5.15
2023-06-29T01:20:49.923Z,5.55
2023-06-29T01:22:17.538Z,5.32
2023-06-29T01:23:39.159Z,4.47
2023-06-29T01:24:44.445Z,5.03
2023-06-29T01:25:51.760Z,4.60
2023-06-29T01:26:55.062Z,5.00
2023-06-29T01:28:13.721Z,5.20
2023-06-29T01:29:29.868Z,4.85
2023-06-29T01:30:35.774Z,5.43
2023-06-29T01:31:39.836Z,4.65
2023-06-29T01:32:42.802Z,5.18
2023-06-29T01:33:46.095Z,4.88
2023-06-29T01:34:51.293Z,4.80
2023-06-29T01:36:43.581Z,5.53
2023-06-29T01:37:52.568Z,4.65
2023-06-29T01:39:20.098Z,5.47
2023-06-29T01:40:35.172Z,5.15
2023-06-29T01:41:47.140Z,4.78
2023-06-29T01:42:55.606Z,5.10
2023-06-29T01:45:08.682Z,4.60
2023-06-29T01:46:11.543Z,4.95
2023-06-29T01:47:21.458Z,5.53
2023-06-29T01:48:25.249Z,5.18
2023-06-29T01:49:30.901Z,4.57
2023-06-29T01:50:47.584Z,4.57
2023-06-29T01:51:57.754Z,4.90
2023-06-29T01:53:00.489Z,4.50
2023-06-29T01:54:07.058Z,4.70
2023-06-29T01:55:18.833Z,5.00
2023-06-29T01:56:21.690Z,5.40
2023-06-29T01:57:34.754Z,4.75
2023-06-29T01:58:44.626Z,5.20
2023-06-29T01:59:47.945Z,5.38
2023-06-29T02:00:51.467Z,5.38
2023-06-29T02:02:01.596Z,4.82
2023-06-29T02:03:10.300Z,5.22
2023-06-29T02:04:16.275Z,4.88
2023-06-29T02:05:25.679Z,4.75
2023-06-29T02:06:29.096Z,5.00
2023-06-29T02:07:32.589Z,4.95
2023-06-29T02:09:02.859Z,5.60
2023-06-29T02:10:07.303Z,4.95
2023-06-29T02:11:17.229Z,6.07
2023-06-29T02:12:21.464Z,5.63
2023-06-29T02:13:33.044Z,5.32
2023-06-29T02:14:36.034Z,5.35
2023-06-29T02:15:40.019Z,5.13
2023-06-29T02:16:46.221Z,4.75
2023-06-29T02:18:08.582Z,4.88
2023-06-29T02:19:27.414Z,5.55
2023-06-29T02:20:34.470Z,5.65
2023-06-29T02:21:37.455Z,5.88
2023-06-29T02:22:48.287Z,5.03
2023-06-29T02:24:01.184Z,5.55
2023-06-29T02:25:14.015Z,4.90
2023-06-29T02:26:16.918Z,4.60
2023-06-29T02:27:31.149Z,4.85
2023-06-29T02:28:43.861Z,5.72
2023-06-29T02:30:20.665Z,5.22
2023-06-29T02:31:32.954Z,4.13
2023-06-29T02:33:13.086Z,4.40
2023-06-29T02:35:34.580Z,4.57
2023-06-29T02:36:47.109Z,4.53
2023-06-29T02:37:53.954Z,5.53
2023-06-29T02:39:03.365Z,4.85
2023-06-29T02:40:12.730Z,5.07
2023-06-29T02:41:17.726Z,5.22
2023-06-29T02:42:31.263Z,7.07
2023-06-29T02:45:22.779Z,5.45
2023-06-29T02:46:36.733Z,5.10
2023-06-29T02:48:09.780Z,5.65
2023-06-29T02:49:16.842Z,5.75
2023-06-29T02:50:32.830Z,5.70
2023-06-29T02:51:37.849Z,5.50
2023-06-29T02:52:43.226Z,4.78
2023-06-29T02:53:53.887Z,5.45
2023-06-29T02:54:59.431Z,5.68
2023-06-29T02:56:11.064Z,5.50
2023-06-29T02:57:22.422Z,5.40
2023-06-29T02:58:53.769Z,4.57
2023-06-29T03:00:12.263Z,5.00
2023-06-29T03:01:31.552Z,5.40
2023-06-29T03:02:37.077Z,5.50
2023-06-29T03:05:50.628Z,4.93
2023-06-29T03:07:22.908Z,5.35
2023-06-29T03:09:02.550Z,5.00
2023-06-29T03:10:58.415Z,5.28
2023-06-29T03:12:41.994Z,5.57
2023-06-29T03:14:21.071Z,5.10
2023-06-29T03:15:49.446Z,5.38
2023-06-29T03:17:08.643Z,5.30
2023-06-29T03:19:06.198Z,4.93
2023-06-29T03:22:35.449Z,4.97
2023-06-29T03:24:39.590Z,4.65
2023-06-29T03:25:54.753Z,5.03
2023-06-29T03:32:33.570Z,4.65
2023-06-29T03:32:49.221Z,5.03
2023-06-29T03:36:33.731Z,4.55
2023-06-29T03:40:35.483Z,6.63
2023-06-29T03:41:05.306Z,4.65
2023-06-29T03:47:09.146Z,5.20
2023-06-29T03:49:54.530Z,4.70
2023-06-29T03:49:59.550Z,5.13
2023-06-29T03:58:04.973Z,5.15
2023-06-29T04:07:08.227Z,5.00
2023-06-29T04:17:36.505Z,4.75
2023-06-29T04:20:15.663Z,5.10
2023-06-29T04:20:29.823Z,4.80
2023-06-29T04:23:06.474Z,5.35
2023-06-29T04:25:46.435Z,5.00
2023-06-29T04:31:05.358Z,4.70
2023-06-29T04:39:09.532Z,5.43
2023-06-29T04:40:16.017Z,4.45
2023-06-29T04:41:39.015Z,4.78
2023-06-29T04:42:46.556Z,5.07
2023-06-29T04:43:55.657Z,5.00
2023-06-29T04:45:01.906Z,4.05
2023-06-29T04:46:13.952Z,4.50
2023-06-29T04:47:19.499Z,4.75
2023-06-29T04:48:37.641Z,4.20
2023-06-29T04:49:46.424Z,4.72
2023-06-29T04:50:52.116Z,5.10
2023-06-29T04:52:04.150Z,5.00
2023-06-29T04:53:14.184Z,4.72
2023-06-29T04:54:29.163Z,4.90
2023-06-29T04:58:02.484Z,4.72
2023-06-29T04:58:23.885Z,4.18
2023-06-29T04:59:09.767Z,4.97
2023-06-29T05:00:24.698Z,5.35
2023-06-29T05:01:30.628Z,4.50
2023-06-29T05:02:35.973Z,5.07
2023-06-29T05:03:46.833Z,4.65
2023-06-29T05:05:02.828Z,4.53
2023-06-29T05:06:09.140Z,5.07
2023-06-29T05:07:17.984Z,4.47
2023-06-29T05:08:36.344Z,4.82
2023-06-29T05:09:41.313Z,4.75
2023-06-29T05:10:47.308Z,4.47
2023-06-29T05:11:59.518Z,4.78
2023-06-29T05:13:04.248Z,4.50
2023-06-29T05:14:07.520Z,4.95
2023-06-29T05:15:16.000Z,5.00
2023-06-29T05:16:22.330Z,4.68
2023-06-29T05:17:27.630Z,4.45
2023-06-29T05:18:38.512Z,4.63
2023-06-29T05:19:46.028Z,4.68
2023-06-29T05:20:55.844Z,4.57
2023-06-29T05:22:04.234Z,4.65
2023-06-29T05:23:11.781Z,5.10
2023-06-29T05:24:15.537Z,4.75
2023-06-29T05:25:26.569Z,5.25
2023-06-29T05:26:29.208Z,4.55
2023-06-29T05:27:32.576Z,4.68
2023-06-29T05:28:35.331Z,4.60
2023-06-29T05:29:38.996Z,4.63
2023-06-29T05:30:47.844Z,4.60
2023-06-29T05:31:53.235Z,4.20
2023-06-29T05:33:03.007Z,4.25
2023-06-29T05:34:09.854Z,3.92
2023-06-29T05:35:18.453Z,5.15
2023-06-29T05:36:31.122Z,4.80
2023-06-29T05:37:39.025Z,4.32
2023-06-29T05:38:42.543Z,3.92
2023-06-29T05:39:48.227Z,4.22
2023-06-29T05:40:50.681Z,4.30
2023-06-29T05:41:56.290Z,4.15
2023-06-29T05:43:01.448Z,4.32
2023-06-29T05:44:09.346Z,4.35
2023-06-29T05:46:30.179Z,4.18
2023-06-29T05:48:00.024Z,4.18
2023-06-29T05:49:06.773Z,4.05
2023-06-29T05:50:16.407Z,4.45
2023-06-29T05:51:18.874Z,4.43
2023-06-29T05:52:27.505Z,3.83
2023-06-29T05:53:33.308Z,3.97
2023-06-29T05:54:42.006Z,3.92
2023-06-29T05:55:44.497Z,4.40
2023-06-29T05:56:48.915Z,4.80
2023-06-29T05:57:56.380Z,4.63
2023-06-29T05:59:01.196Z,3.63
2023-06-29T06:00:14.266Z,3.70
2023-06-29T06:01:26.130Z,4.30
2023-06-29T06:03:49.124Z,3.88
2023-06-29T06:04:51.976Z,4.40
2023-06-29T06:06:59.966Z,4.05
2023-06-29T06:08:11.290Z,3.72
2023-06-29T06:09:21.730Z,3.78
2023-06-29T06:10:39.166Z,3.70
2023-06-29T06:11:51.833Z,4.00
2023-06-29T06:12:57.375Z,3.95
2023-06-29T06:14:00.982Z,3.92
2023-06-29T06:15:04.492Z,3.90
2023-06-29T06:16:09.976Z,3.38
2023-06-29T06:17:21.972Z,3.45
2023-06-29T06:18:31.996Z,3.03
2023-06-29T06:19:41.428Z,3.40
2023-06-29T06:20:53.579Z,3.42
2023-06-29T06:22:01.334Z,3.42
2023-06-29T06:23:03.679Z,3.45
2023-06-29T06:24:07.045Z,3.92
2023-06-29T06:25:10.790Z,4.25
2023-06-29T06:26:14.087Z,3.97
2023-06-29T06:27:23.632Z,3.90
2023-06-29T06:28:39.784Z,3.78
2023-06-29T06:29:46.173Z,4.05
2023-06-29T06:30:53.182Z,4.10
2023-06-29T06:33:17.462Z,3.42
2023-06-29T06:34:20.044Z,3.58
2023-06-29T06:35:22.609Z,3.50
2023-06-29T06:36:34.302Z,3.60
2023-06-29T06:37:41.744Z,3.45
2023-06-29T06:38:50.245Z,3.63
2023-06-29T06:40:05.547Z,3.60
2023-06-29T06:41:19.004Z,3.35
2023-06-29T06:42:22.900Z,3.45
2023-06-29T06:43:35.232Z,3.20
2023-06-29T06:44:47.549Z,3.10
2023-06-29T06:45:53.080Z,3.05
2023-06-29T06:47:04.411Z,3.08
2023-06-29T06:48:12.026Z,3.20
2023-06-29T06:49:14.873Z,3.10
2023-06-29T06:50:20.638Z,3.42
2023-06-29T06:51:39.118Z,3.20
2023-06-29T06:52:41.914Z,3.03
2023-06-29T06:53:44.576Z,3.30
2023-06-29T06:54:47.154Z,3.00
2023-06-29T06:56:04.582Z,2.90
2023-06-29T06:57:09.670Z,3.15
2023-06-29T06:58:12.412Z,2.97
2023-06-29T06:59:15.881Z,3.63
2023-06-29T07:00:23.622Z,2.90
2023-06-29T07:01:27.163Z,3.50
2023-06-29T07:02:32.053Z,3.22
2023-06-29T07:03:34.727Z,2.90
2023-06-29T07:04:37.168Z,2.72
2023-06-29T07:05:39.720Z,2.92
2023-06-29T07:06:42.455Z,2.83
2023-06-29T07:07:47.388Z,2.67
2023-06-29T07:08:50.124Z,2.42
2023-06-29T07:09:53.240Z,2.80
2023-06-29T07:10:59.712Z,2.70
2023-06-29T07:12:02.191Z,2.53
2023-06-29T07:13:04.516Z,2.80
2023-06-29T07:14:07.128Z,2.70
2023-06-29T07:15:10.061Z,2.60
2023-06-29T07:16:13.904Z,2.72
2023-06-29T07:18:18.828Z,2.55
2023-06-29T07:21:34.416Z,2.53
2023-06-29T07:24:47.719Z,2.53
2023-06-29T07:25:51.665Z,2.85
2023-06-29T07:27:56.594Z,3.05
2023-06-29T07:29:06.580Z,2.63
2023-06-29T07:30:10.000Z,2.33
2023-06-29T07:31:12.559Z,2.78
2023-06-29T07:32:15.210Z,2.28
2023-06-29T07:33:18.775Z,2.65
2023-06-29T07:34:24.628Z,2.70
2023-06-29T07:35:27.475Z,2.42
2023-06-29T07:36:30.692Z,2.28
2023-06-29T07:37:34.567Z,2.67
2023-06-29T07:38:37.054Z,2.38
2023-06-29T07:39:39.392Z,2.30
2023-06-29T07:40:42.410Z,2.20
2023-06-29T07:41:44.876Z,2.15
2023-06-29T07:42:47.383Z,2.22
2023-06-29T07:43:53.155Z,2.05
2023-06-29T07:44:56.276Z,2.15
2023-06-29T07:45:58.690Z,2.20
2023-06-29T07:47:01.429Z,2.22
2023-06-29T07:48:04.597Z,2.15
2023-06-29T07:49:07.239Z,2.13
2023-06-29T07:50:10.212Z,2.38
2023-06-29T07:51:12.721Z,2.33
2023-06-29T07:52:15.243Z,2.20
2023-06-29T07:53:17.753Z,2.22
2023-06-29T07:54:20.227Z,2.00
2023-06-29T07:55:22.730Z,2.45
2023-06-29T07:56:25.404Z,2.20
2023-06-29T07:59:39.186Z,2.35
2023-06-29T08:00:41.609Z,2.00
2023-06-29T08:01:44.216Z,2.42
2023-06-29T08:02:48.116Z,2.20
2023-06-29T08:03:59.997Z,2.38
2023-06-29T08:07:15.510Z,2.67
2023-06-29T08:08:18.343Z,2.65
2023-06-29T08:09:20.941Z,2.13
2023-06-29T08:10:23.384Z,2.22
2023-06-29T08:11:25.815Z,2.47
2023-06-29T08:12:28.085Z,2.33
2023-06-29T08:13:30.462Z,2.30
2023-06-29T08:14:34.129Z,2.50
2023-06-29T08:15:36.543Z,2.65
2023-06-29T08:16:39.061Z,2.60
2023-06-29T08:17:41.738Z,2.20
2023-06-29T08:18:44.406Z,2.35
2023-06-29T08:19:47.192Z,2.55
2023-06-29T08:20:49.800Z,2.45
2023-06-29T08:21:56.840Z,2.13
2023-06-29T08:22:59.273Z,2.08
2023-06-29T08:24:01.559Z,3.20
2023-06-29T08:25:03.981Z,2.50
2023-06-29T08:26:06.384Z,2.30
2023-06-29T08:27:10.206Z,2.72
2023-06-29T08:42:07.084Z,2.30
2023-06-29T08:43:13.284Z,2.42
2023-06-29T08:44:15.784Z,2.50
2023-06-29T08:45:18.479Z,2.38
2023-06-29T08:46:21.432Z,2.70
2023-06-29T08:47:25.777Z,2.50
2023-06-29T08:48:30.886Z,2.60
2023-06-29T08:49:39.896Z,2.55
2023-06-29T08:50:46.101Z,2.30
2023-06-29T08:51:50.954Z,2.20
2023-06-29T08:52:54.077Z,2.20
2023-06-29T08:53:56.705Z,2.40
2023-06-29T08:54:59.926Z,2.58
2023-06-29T08:56:02.965Z,2.50
2023-06-29T08:57:06.030Z,2.78
2023-06-29T08:58:08.741Z,2.60
2023-06-29T08:59:11.339Z,2.95
2023-06-29T09:00:14.536Z,2.75
2023-06-29T09:01:17.737Z,2.40
2023-06-29T09:02:20.752Z,2.40
2023-06-29T09:03:28.515Z,2.42
2023-06-29T09:04:31.004Z,2.50
2023-06-29T09:05:34.602Z,2.53
2023-06-29T09:06:37.165Z,6.07
2023-06-29T09:07:41.733Z,3.15
2023-06-29T09:08:44.328Z,2.20
2023-06-29T09:09:46.950Z,2.70
2023-06-29T09:10:51.461Z,2.47
2023-06-29T09:11:55.237Z,2.63
2023-06-29T09:12:58.022Z,2.22
2023-06-29T09:14:05.536Z,2.50
2023-06-29T09:15:11.383Z,2.30
2023-06-29T09:16:19.441Z,2.08
2023-06-29T09:17:23.365Z,2.22
2023-06-29T09:18:28.319Z,2.35
2023-06-29T09:19:33.370Z,2.72
2023-06-29T09:21:39.364Z,2.13
2023-06-29T09:22:42.147Z,2.20
2023-06-29T09:23:45.401Z,2.20
2023-06-29T09:25:02.876Z,2.65
2023-06-29T09:26:08.686Z,2.00
2023-06-29T09:27:12.360Z,2.22
2023-06-29T09:28:14.916Z,2.33
2023-06-29T09:29:18.513Z,2.00
2023-06-29T09:32:25.811Z,2.33
2023-06-29T09:33:28.153Z,2.45
2023-06-29T09:34:30.562Z,2.42
2023-06-29T09:35:32.908Z,2.15
2023-06-29T09:36:35.321Z,2.47
2023-06-29T09:37:38.064Z,2.58
2023-06-29T09:38:41.181Z,2.40
2023-06-29T09:39:58.525Z,2.33
2023-06-29T09:41:00.961Z,2.60
2023-06-29T09:42:03.642Z,2.47
2023-06-29T09:43:16.318Z,2.50
2023-06-29T09:44:20.938Z,2.13
2023-06-29T09:45:23.293Z,2.45
2023-06-29T09:46:29.523Z,2.65
2023-06-29T09:49:53.358Z,2.95
2023-06-29T09:50:56.235Z,2.85
2023-06-29T09:52:05.827Z,2.20
2023-06-29T09:53:12.509Z,2.03
2023-06-29T09:54:16.206Z,2.15
2023-06-29T09:55:19.368Z,2.20
2023-06-29T09:56:22.221Z,2.30
2023-06-29T09:57:27.368Z,2.38
2023-06-29T09:58:32.046Z,2.35
2023-06-29T09:59:35.727Z,2.47
2023-06-29T10:00:38.849Z,2.58
2023-06-29T10:01:45.221Z,2.30
2023-06-29T10:02:47.758Z,2.40
2023-06-29T10:03:50.386Z,2.25
2023-06-29T10:04:54.589Z,2.58
2023-06-29T10:05:59.500Z,2.42
2023-06-29T10:07:16.130Z,2.40
2023-06-29T10:08:18.883Z,3.67
2023-06-29T10:09:22.354Z,2.40
2023-06-29T10:10:26.718Z,2.58
2023-06-29T10:11:30.717Z,2.20
2023-06-29T10:12:34.158Z,2.20
2023-06-29T10:13:44.728Z,2.67
2023-06-29T10:14:47.774Z,2.30
2023-06-29T10:15:51.443Z,2.50
2023-06-29T10:16:54.975Z,2.92
2023-06-29T10:18:03.076Z,2.70
2023-06-29T10:19:20.511Z,2.55
2023-06-29T10:20:28.528Z,2.47
2023-06-29T10:21:31.039Z,2.33
2023-06-29T10:22:36.085Z,2.78
2023-06-29T10:23:39.081Z,2.30
2023-06-29T10:24:49.476Z,2.25
2023-06-29T10:25:52.556Z,2.33
2023-06-29T10:26:56.065Z,2.25
2023-06-29T10:27:58.434Z,2.50
2023-06-29T10:29:00.794Z,2.40
2023-06-29T10:30:06.422Z,2.25
2023-06-29T10:31:09.346Z,2.50
2023-06-29T10:32:29.536Z,2.53
2023-06-29T10:33:32.962Z,2.50
2023-06-29T10:34:40.529Z,2.45
2023-06-29T10:35:52.274Z,2.58
2023-06-29T10:37:03.542Z,2.50
2023-06-29T10:38:17.659Z,2.58
2023-06-29T10:39:48.602Z,2.63
2023-06-29T10:40:50.947Z,2.92
2023-06-29T10:41:53.507Z,2.25
2023-06-29T10:42:57.227Z,2.45
2023-06-29T10:44:01.481Z,2.50
2023-06-29T10:45:04.814Z,2.58
2023-06-29T10:46:08.234Z,2.55
2023-06-29T10:47:27.718Z,2.88
2023-06-29T10:48:42.890Z,2.30
2023-06-29T10:49:56.824Z,2.33
2023-06-29T10:50:59.169Z,2.50
2023-06-29T10:52:05.849Z,2.40
2023-06-29T10:53:13.663Z,2.40
2023-06-29T10:54:17.354Z,2.58
2023-06-29T10:56:31.096Z,2.47
2023-06-29T10:57:33.745Z,2.65
2023-06-29T10:58:39.304Z,2.47
2023-06-29T10:59:42.625Z,2.72
2023-06-29T11:00:47.853Z,2.20
2023-06-29T11:01:52.154Z,2.28
2023-06-29T11:02:55.856Z,2.30
2023-06-29T11:03:59.914Z,2.67
2023-06-29T11:05:02.409Z,2.58
2023-06-29T11:06:05.473Z,2.20
2023-06-29T11:07:11.217Z,2.55
2023-06-29T11:08:14.360Z,2.40
2023-06-29T11:09:16.958Z,2.58
2023-06-29T11:10:23.002Z,2.38
2023-06-29T11:11:25.628Z,2.38
2023-06-29T11:12:28.098Z,2.53
2023-06-29T11:13:33.606Z,2.25
2023-06-29T11:14:39.779Z,1.90
2023-06-29T11:15:42.432Z,2.47
2023-06-29T11:16:45.278Z,2.30
2023-06-29T11:17:50.687Z,2.35
2023-06-29T11:18:55.276Z,2.38
2023-06-29T11:19:59.073Z,2.40
2023-06-29T11:21:01.779Z,2.35
2023-06-29T11:22:04.429Z,2.38
2023-06-29T11:23:10.497Z,2.28
2023-06-29T11:24:14.014Z,2.33
2023-06-29T11:25:17.748Z,2.22
2023-06-29T11:26:21.879Z,2.45
2023-06-29T11:27:24.388Z,2.55
2023-06-29T11:28:26.798Z,4.03
2023-06-29T11:29:30.122Z,2.97
2023-06-29T11:30:32.672Z,2.30
2023-06-29T11:31:35.304Z,2.80
2023-06-29T11:32:42.091Z,2.50
2023-06-29T11:33:51.411Z,2.22
2023-06-29T11:35:01.288Z,2.47
2023-06-29T11:36:03.904Z,2.50
2023-06-29T11:37:15.629Z,2.60
2023-06-29T11:38:19.970Z,2.42
2023-06-29T11:39:25.032Z,2.38
2023-06-29T11:40:27.662Z,2.38
2023-06-29T11:41:32.349Z,2.78
2023-06-29T11:42:37.234Z,2.65
2023-06-29T11:43:39.697Z,2.30
2023-06-29T11:44:44.433Z,2.67
2023-06-29T11:45:47.282Z,2.50
2023-06-29T11:46:54.805Z,2.55
2023-06-29T11:48:08.859Z,2.28
2023-06-29T11:49:11.716Z,2.58
2023-06-29T11:50:18.542Z,2.53
2023-06-29T11:51:21.207Z,2.30
2023-06-29T11:52:23.776Z,2.65
2023-06-29T11:53:30.079Z,2.55
2023-06-29T11:54:34.302Z,2.42
2023-06-29T11:56:46.777Z,2.90
2023-06-29T11:57:55.256Z,2.20
2023-06-29T11:58:57.801Z,2.80
2023-06-29T12:00:00.350Z,2.55
2023-06-29T12:01:02.935Z,2.22
2023-06-29T12:02:05.690Z,3.03
2023-06-29T12:03:09.773Z,2.28
2023-06-29T12:04:15.464Z,2.40
2023-06-29T12:05:18.412Z,2.30
2023-06-29T12:06:20.818Z,2.33
2023-06-29T12:07:42.705Z,2.15
2023-06-29T12:08:46.986Z,2.08
2023-06-29T12:09:49.774Z,2.28
2023-06-29T12:10:52.036Z,2.70
2023-06-29T12:12:01.312Z,2.40
2023-06-29T12:13:04.032Z,2.50
2023-06-29T12:14:09.733Z,2.40
2023-06-29T12:15:17.524Z,2.20
2023-06-29T12:18:36.779Z,2.50
2023-06-29T12:19:54.788Z,2.15
2023-06-29T12:21:06.338Z,2.28
2023-06-29T12:22:16.539Z,2.58
2023-06-29T12:23:18.908Z,2.00
2023-06-29T12:24:21.326Z,2.10
2023-06-29T12:25:24.020Z,2.03
2023-06-29T12:26:26.423Z,2.30
2023-06-29T12:27:28.823Z,2.42
2023-06-29T12:28:31.272Z,2.30
2023-06-29T12:29:33.528Z,2.33
2023-06-29T12:30:36.569Z,2.20
2023-06-29T12:31:39.078Z,2.33
2023-06-29T12:32:51.400Z,2.22
2023-06-29T12:33:56.780Z,2.10
2023-06-29T12:34:59.187Z,2.35
2023-06-29T12:36:01.630Z,2.20
2023-06-29T12:37:03.933Z,2.45
2023-06-29T12:38:07.025Z,2.58
2023-06-29T12:39:09.420Z,2.40
2023-06-29T12:40:12.089Z,2.28
2023-06-29T12:41:14.544Z,2.50
2023-06-29T12:42:16.927Z,2.08
2023-06-29T12:43:19.260Z,2.38
2023-06-29T12:44:21.608Z,2.20
2023-06-29T12:45:24.036Z,2.60
2023-06-29T12:46:28.603Z,2.45
2023-06-29T12:47:31.924Z,2.28
2023-06-29T12:48:34.597Z,2.38
2023-06-29T12:49:38.592Z,2.33
2023-06-29T12:50:41.000Z,2.20
2023-06-29T12:51:43.358Z,2.50
2023-06-29T12:52:54.920Z,2.33
2023-06-29T12:53:57.158Z,2.13
2023-06-29T12:55:00.407Z,2.45
2023-06-29T12:56:03.037Z,2.25
2023-06-29T12:57:05.968Z,2.50
2023-06-29T12:58:08.293Z,2.50
2023-06-29T12:59:10.879Z,2.30
2023-06-29T13:00:13.925Z,2.47
2023-06-29T13:01:18.503Z,2.42
2023-06-29T13:02:21.528Z,2.28
2023-06-29T13:03:24.226Z,2.30
2023-06-29T13:04:26.844Z,2.45
2023-06-29T13:05:29.193Z,2.30
2023-06-29T13:06:33.532Z,2.45
2023-06-29T13:07:37.263Z,2.10
2023-06-29T13:08:39.727Z,2.10
2023-06-29T13:09:43.220Z,2.47
2023-06-29T13:11:51.717Z,2.40
2023-06-29T13:12:54.165Z,2.40
2023-06-29T13:13:57.974Z,2.00
2023-06-29T13:15:00.403Z,2.53
2023-06-29T13:16:05.707Z,2.35
2023-06-29T13:17:10.646Z,2.60
2023-06-29T13:18:13.121Z,2.22
2023-06-29T13:19:15.680Z,2.08
2023-06-29T13:20:18.191Z,2.47
2023-06-29T13:21:21.084Z,2.55
2023-06-29T13:22:24.308Z,2.22
2023-06-29T13:23:26.958Z,2.35
2023-06-29T13:24:29.345Z,2.35
2023-06-29T13:25:31.761Z,2.50
2023-06-29T13:26:34.074Z,2.30
2023-06-29T13:27:38.404Z,2.67
2023-06-29T13:28:41.121Z,2.08
2023-06-29T13:29:43.567Z,2.17
2023-06-29T13:30:46.182Z,2.22
2023-06-29T13:31:48.577Z,2.47
2023-06-29T13:32:50.999Z,2.25
2023-06-29T13:33:53.501Z,2.20
2023-06-29T13:34:55.849Z,2.28
2023-06-29T13:35:58.263Z,2.22
2023-06-29T13:37:03.097Z,2.30
2023-06-29T13:38:05.367Z,2.40
2023-06-29T13:39:08.872Z,2.10
2023-06-29T13:40:13.050Z,2.45
2023-06-29T13:41:15.591Z,2.70
2023-06-29T13:42:18.147Z,2.60
2023-06-29T13:43:20.436Z,2.60
2023-06-29T13:44:22.970Z,2.35
2023-06-29T13:45:25.484Z,2.35
2023-06-29T13:46:27.849Z,2.20
2023-06-29T13:47:30.340Z,2.30
2023-06-29T13:48:32.930Z,2.20
2023-06-29T13:49:35.648Z,2.35
2023-06-29T13:50:41.916Z,2.15
2023-06-29T13:51:52.492Z,2.13
2023-06-29T13:52:55.317Z,2.22
2023-06-29T13:54:02.411Z,2.50
2023-06-29T13:55:08.518Z,2.55
2023-06-29T13:56:11.439Z,2.30
2023-06-29T13:57:13.781Z,2.42
2023-06-29T13:58:16.295Z,2.65
2023-06-29T13:59:18.690Z,2.30
2023-06-29T14:00:22.602Z,2.30
2023-06-29T14:01:25.012Z,2.30
2023-06-29T14:02:27.568Z,2.25
2023-06-29T14:03:30.337Z,2.53
2023-06-29T14:04:33.059Z,2.70
2023-06-29T14:05:36.148Z,2.05
2023-06-29T14:06:43.935Z,2.40
2023-06-29T14:07:46.309Z,2.53
2023-06-29T14:08:48.779Z,2.33
2023-06-29T14:09:51.131Z,2.00
2023-06-29T14:10:53.789Z,2.20
2023-06-29T14:11:56.492Z,1.90
2023-06-29T14:12:59.182Z,2.15
2023-06-29T14:14:01.893Z,2.08
2023-06-29T14:15:04.587Z,2.10
2023-06-29T14:16:07.143Z,2.00
2023-06-29T14:17:09.686Z,2.20
2023-06-29T14:18:12.157Z,2.10
2023-06-29T14:19:17.683Z,2.05
2023-06-29T14:20:24.817Z,2.20
2023-06-29T14:21:27.453Z,2.35
2023-06-29T14:22:29.782Z,2.08
2023-06-29T14:23:33.379Z,2.20
2023-06-29T14:24:35.731Z,2.25
2023-06-29T14:25:38.084Z,2.30
2023-06-29T14:26:40.419Z,1.90
2023-06-29T14:27:42.795Z,2.35
2023-06-29T14:28:45.458Z,2.72
2023-06-29T14:29:47.936Z,2.47
2023-06-29T14:30:50.315Z,2.45
2023-06-29T14:31:52.683Z,2.65
2023-06-29T14:32:55.032Z,2.15
2023-06-29T14:33:59.637Z,2.20
2023-06-29T14:35:02.282Z,2.40
2023-06-29T14:36:08.644Z,2.28
2023-06-29T14:37:11.293Z,2.20
2023-06-29T14:38:15.075Z,2.42
2023-06-29T14:39:18.059Z,2.25
2023-06-29T14:40:20.387Z,2.25
2023-06-29T14:41:22.780Z,2.08
2023-06-29T14:42:25.280Z,2.40
2023-06-29T14:43:27.712Z,2.40
2023-06-29T14:44:30.138Z,2.20
2023-06-29T14:45:32.551Z,2.05
2023-06-29T14:46:35.228Z,2.20
2023-06-29T14:47:37.770Z,2.35
2023-06-29T14:48:40.274Z,2.45
2023-06-29T14:49:42.703Z,2.17
2023-06-29T14:50:47.148Z,2.10
2023-06-29T14:51:50.295Z,1.80
2023-06-29T14:52:52.758Z,2.58
2023-06-29T14:53:55.096Z,2.10
2023-06-29T14:54:57.822Z,2.05
2023-06-29T14:56:10.769Z,2.20
2023-06-29T14:57:13.247Z,2.30
2023-06-29T14:58:16.003Z,2.40
2023-06-29T14:59:18.489Z,2.25
2023-06-29T15:00:21.725Z,2.30
2023-06-29T15:01:24.136Z,2.17
2023-06-29T15:02:26.729Z,2.35
2023-06-29T15:03:29.487Z,2.50
2023-06-29T15:04:32.115Z,2.10
2023-06-29T15:05:34.769Z,2.08
2023-06-29T15:06:37.127Z,2.38
2023-06-29T15:07:39.514Z,2.05
2023-06-29T15:08:41.895Z,1.90
2023-06-29T15:09:44.512Z,2.00
2023-06-29T15:10:46.965Z,2.20
2023-06-29T15:11:50.222Z,2.13
2023-06-29T15:12:52.551Z,2.15
2023-06-29T15:13:55.606Z,2.03
2023-06-29T15:14:58.058Z,2.20
2023-06-29T15:16:00.557Z,2.63
2023-06-29T15:17:03.119Z,2.15
2023-06-29T15:18:06.119Z,2.38
2023-06-29T15:19:08.507Z,2.30
2023-06-29T15:20:11.902Z,2.40
2023-06-29T15:21:16.781Z,2.00
2023-06-29T15:22:19.247Z,2.00
2023-06-29T15:23:21.571Z,2.17
2023-06-29T15:24:23.948Z,2.20
2023-06-29T15:25:26.331Z,2.05
2023-06-29T15:26:28.748Z,2.65
2023-06-29T15:27:31.713Z,2.33
2023-06-29T15:28:34.080Z,2.05
2023-06-29T15:29:36.494Z,2.20
2023-06-29T15:30:51.779Z,2.22
2023-06-29T15:31:55.547Z,2.05
2023-06-29T15:32:58.125Z,2.35
2023-06-29T15:34:00.378Z,1.92
2023-06-29T15:35:04.293Z,2.08
2023-06-29T15:36:06.787Z,2.10
2023-06-29T15:37:09.141Z,2.30
2023-06-29T15:38:11.517Z,1.98
2023-06-29T15:39:14.370Z,2.30
2023-06-29T15:40:16.989Z,2.03
2023-06-29T15:41:19.336Z,1.85
2023-06-29T15:42:21.672Z,2.13
2023-06-29T15:43:23.968Z,2.20
2023-06-29T15:44:26.414Z,2.33
2023-06-29T15:45:29.319Z,2.28
2023-06-29T15:46:33.819Z,2.20
2023-06-29T15:47:37.183Z,2.15
2023-06-29T15:48:39.941Z,2.05
2023-06-29T15:49:42.445Z,2.50
2023-06-29T15:50:46.185Z,2.25
2023-06-29T15:51:49.761Z,2.10
2023-06-29T15:52:52.338Z,2.33
2023-06-29T15:53:55.357Z,2.10
2023-06-29T15:54:59.195Z,2.28
2023-06-29T15:56:01.846Z,2.38
2023-06-29T15:57:04.680Z,2.13
2023-06-29T15:58:07.314Z,2.40
2023-06-29T15:59:09.831Z,2.20
2023-06-29T16:00:12.633Z,2.47
2023-06-29T16:01:15.173Z,2.20
2023-06-29T16:02:17.877Z,2.55
2023-06-29T16:03:20.420Z,2.00
2023-06-29T16:04:23.782Z,2.05
2023-06-29T16:05:26.269Z,2.30
2023-06-29T16:06:30.217Z,2.35
2023-06-29T16:07:32.834Z,2.30
2023-06-29T16:08:35.371Z,2.30
2023-06-29T16:09:38.626Z,2.28
2023-06-29T16:10:42.286Z,2.30
2023-06-29T16:11:44.659Z,2.30
2023-06-29T16:12:47.077Z,2.40
2023-06-29T16:13:49.986Z,2.28
2023-06-29T16:14:52.914Z,2.20
2023-06-29T16:15:55.383Z,1.90
2023-06-29T16:16:57.929Z,2.15
2023-06-29T16:18:00.423Z,2.17
2023-06-29T16:19:02.858Z,2.30
2023-06-29T16:20:05.962Z,1.95
2023-06-29T16:21:11.946Z,2.03
2023-06-29T16:22:16.989Z,2.00
2023-06-29T16:23:19.313Z,2.15
2023-06-29T16:24:21.623Z,2.10
2023-06-29T16:25:25.440Z,2.08
2023-06-29T16:26:27.816Z,2.00
2023-06-29T16:27:30.113Z,2.20
2023-06-29T16:28:32.764Z,2.10
2023-06-29T16:29:35.103Z,1.98
2023-06-29T16:30:37.543Z,2.05
2023-06-29T16:31:41.721Z,2.15
2023-06-29T16:32:46.498Z,1.90
2023-06-29T16:33:48.901Z,1.88
2023-06-29T16:34:51.342Z,2.00
2023-06-29T16:35:54.551Z,2.10
2023-06-29T16:36:57.069Z,2.30
2023-06-29T16:37:59.414Z,2.15
2023-06-29T16:39:02.233Z,2.30
2023-06-29T16:40:05.340Z,2.20
2023-06-29T16:41:08.066Z,2.17
2023-06-29T16:42:10.650Z,2.10
2023-06-29T16:43:13.945Z,1.98